Kendall Tamiami Executive Airport
KTMB : now visible

Airfield :











YOU CAN JOIN US ON...

 
LOGIN :

Register | Disclaimer

   EN    FR    IT 

 









Legend :    VFR   Marginal VFR   IFR   Intensive IFR   Very Intensive IFR
Visi :
Ceiling :
>= 8 km
>= 3000ft
5 to 8 km
1000 to 3000 ft
1500m to 5 km
500 to 1000 ft
800 to 1500m
200 to 500 ft
< 800m
< 200 ft
Symbols :   Thunderstorms  Fog  Heavy snow  Heavy precipitations  Wind > 20 kt







- Airport Elevation : 8 ft


KTMB - Kendall Tamiami Executive

CURRENT METAR :
  • 170953Z AUTO 36006KT 10SM CLR 26/24 A2991 RMK AO2 SLP128 T02610244

EXPIRED METARs :
  • 170853Z AUTO 35005KT 10SM CLR 27/24 A2989 RMK AO2 SLP122 T02670244 55005
  • 170753Z AUTO 35003KT 10SM CLR 27/24 A2989 RMK AO2 SLP119 T02670244

TAF KTMB
Valid from the 17 at 09:00 until the 18 at 06:00 UTC


170855Z 1709/1806 35005KT P6SM FEW030 SCT050
FM171400 35008KT P6SM SCT030
FM172100 08008KT P6SM SCT035
FM180000 05006KT P6SM FEW030
No reported NOTAMs for that airfield.



MET'MAP, your aeronautical weather chart ! - Copyright ORBIFLY December 2007 - Disclaimer

ORBIFLY MET'MAP TEAM :

Programming & Development : Alexandra Zaïnal
Concept & Development : Baudouin d'Aumeries
Co-Development & Prog : Marc-Olivier Méhu
Technical & hardware support : Manuel Goepfert

Contact : metmap@orbifly.com




SOURCES & CREDITS :

   NOAA       Earth
Advisory